createdAt,value
2019-04-23T06:12:04.502Z,65.60
2019-04-23T06:17:17.797Z,64.20
2019-04-23T06:22:33.033Z,65.20
2019-04-23T06:27:31.011Z,65.30
2019-04-23T06:32:31.409Z,64.60
2019-04-23T06:38:03.278Z,64.20
2019-04-23T06:43:05.072Z,65.50
2019-04-23T06:48:15.477Z,64.30
2019-04-23T06:53:09.100Z,64.70
2019-04-23T06:58:32.363Z,65.00
2019-04-23T07:03:35.960Z,64.30
2019-04-23T07:13:54.753Z,64.00
2019-04-23T07:19:12.738Z,63.40
2019-04-23T07:29:18.895Z,58.90
2019-04-23T07:34:10.134Z,58.80
2019-04-23T07:39:23.347Z,58.10
2019-04-23T07:49:49.324Z,59.40
2019-04-23T07:54:58.802Z,58.00
2019-04-23T07:59:56.426Z,55.20
2019-04-23T08:05:11.240Z,56.30
2019-04-23T08:10:08.480Z,53.00
2019-04-23T08:15:17.287Z,52.80
2019-04-23T08:20:23.052Z,51.10
2019-04-23T08:25:26.572Z,53.00
2019-04-23T08:30:36.163Z,51.10
2019-04-23T08:35:45.321Z,49.00
2019-04-23T08:40:57.521Z,49.20
2019-04-23T08:45:52.501Z,46.50
2019-04-23T08:51:32.404Z,48.50
2019-04-23T08:56:08.697Z,47.50
2019-04-23T09:06:21.747Z,46.70
2019-04-23T09:16:35.820Z,44.80
2019-04-23T09:21:40.179Z,43.80
2019-04-23T09:26:56.216Z,42.50
2019-04-23T09:32:16.076Z,41.60
2019-04-23T09:42:24.654Z,44.60
2019-04-23T09:47:54.642Z,43.40
2019-04-23T10:02:53.353Z,37.60
2019-04-23T10:07:51.923Z,35.40
2019-04-23T10:12:48.225Z,34.50
2019-04-23T10:17:54.219Z,35.40
2019-04-23T10:23:00.155Z,35.90
2019-04-23T10:28:10.520Z,34.40
2019-04-23T10:33:13.800Z,34.40
2019-04-23T10:38:20.388Z,36.00
2019-04-23T10:43:25.103Z,35.30
2019-04-23T10:49:12.851Z,35.60
2019-04-23T10:54:23.943Z,36.90
2019-04-23T10:59:30.047Z,37.00
2019-04-23T11:09:52.961Z,35.00
2019-04-23T11:14:53.666Z,35.60
2019-04-23T11:20:07.093Z,34.10
2019-04-23T11:30:19.134Z,33.20
2019-04-23T11:40:22.928Z,32.60
2019-04-23T11:45:32.312Z,33.20
2019-04-23T11:51:17.496Z,34.20
2019-04-23T12:01:03.315Z,35.10
2019-04-23T12:06:23.625Z,34.80
2019-04-23T12:11:50.313Z,37.40
2019-04-23T12:16:31.753Z,33.50
2019-04-23T12:21:37.583Z,34.90
2019-04-23T12:26:43.543Z,33.60
2019-04-23T12:32:15.576Z,34.40
2019-04-23T12:37:26.926Z,35.30
2019-04-23T12:42:45.439Z,34.70
2019-04-23T12:52:41.250Z,34.30
2019-04-23T12:57:40.960Z,34.00
2019-04-23T13:07:54.070Z,34.80
2019-04-23T13:13:11.176Z,33.40
2019-04-23T13:18:06.772Z,32.60
2019-04-23T13:28:21.801Z,33.10
2019-04-23T13:33:33.668Z,34.30
2019-04-23T13:43:40.157Z,34.00
2019-04-23T13:48:35.944Z,33.90
2019-04-23T13:53:51.333Z,34.30
2019-04-23T14:04:11.813Z,34.20
2019-04-23T14:09:20.076Z,34.10
2019-04-23T14:14:38.512Z,34.40
2019-04-23T14:19:23.284Z,34.30
2019-04-23T14:24:47.123Z,34.20
2019-04-23T14:29:50.301Z,34.30
2019-04-23T14:34:56.866Z,35.20
2019-04-23T14:39:58.851Z,34.90
2019-04-23T14:45:13.933Z,35.70
2019-04-23T15:00:28.620Z,36.90
2019-04-23T15:05:33.833Z,36.10
2019-04-23T15:10:41.121Z,35.30
2019-04-23T15:15:48.668Z,37.30
2019-04-23T15:21:08.540Z,38.00
2019-04-23T15:26:49.495Z,39.00
2019-04-23T15:31:11.007Z,39.20
2019-04-23T15:41:23.705Z,38.50
2019-04-23T15:51:40.900Z,38.10
2019-04-23T16:01:37.763Z,39.50
2019-04-23T16:06:26.339Z,40.60
2019-04-23T16:12:03.151Z,41.20
2019-04-23T16:17:11.998Z,41.20
2019-04-23T16:27:11.099Z,42.50
2019-04-23T16:32:33.114Z,42.50
2019-04-23T16:37:27.118Z,42.40
2019-04-23T16:42:38.116Z,42.80
2019-04-23T16:48:09.246Z,44.10
2019-04-23T16:52:51.916Z,45.70
2019-04-23T16:58:08.331Z,45.80
2019-04-23T17:03:11.284Z,45.30
2019-04-23T17:08:30.642Z,45.70
2019-04-23T17:13:13.747Z,47.50
2019-04-23T17:23:32.856Z,46.90
2019-04-23T17:28:27.989Z,47.30
2019-04-23T17:39:03.974Z,46.30
2019-04-23T17:44:18.654Z,46.40
2019-04-23T17:49:10.730Z,46.90
2019-04-23T17:59:44.065Z,47.70
2019-04-23T18:04:33.033Z,48.40
2019-04-23T18:09:40.460Z,49.10
2019-04-23T18:14:39.469Z,49.80
2019-04-23T18:19:56.396Z,49.80
2019-04-23T18:30:15.849Z,50.10
2019-04-23T18:40:21.629Z,51.60
2019-04-23T18:45:39.099Z,52.50
2019-04-23T18:50:48.849Z,53.20
2019-04-23T18:56:02.407Z,54.70
2019-04-23T19:01:10.689Z,56.40
2019-04-23T19:06:14.985Z,57.40
2019-04-23T19:11:13.991Z,58.10
2019-04-23T19:16:25.326Z,58.60
2019-04-23T19:21:56.046Z,58.80
2019-04-23T19:36:59.661Z,60.30
2019-04-23T19:47:09.453Z,60.60
2019-04-23T19:52:18.720Z,61.20
2019-04-23T20:02:45.238Z,62.00
2019-04-23T20:07:43.146Z,61.90
2019-04-23T20:12:40.394Z,62.20
2019-04-23T20:17:43.332Z,62.80
2019-04-23T20:22:52.246Z,63.20
2019-04-23T20:28:14.788Z,63.80
2019-04-23T20:38:33.404Z,63.90
2019-04-23T20:43:46.630Z,64.00
2019-04-23T20:48:48.907Z,64.10
2019-04-23T20:54:08.737Z,63.40
2019-04-23T21:14:31.929Z,63.20
2019-04-23T21:19:32.677Z,62.60
2019-04-23T21:24:27.389Z,62.30
2019-04-23T21:29:40.241Z,62.20
2019-04-23T21:34:45.179Z,61.80
2019-04-23T21:44:53.934Z,61.20
2019-04-23T21:50:21.395Z,60.10
2019-04-23T21:55:04.065Z,59.10
2019-04-23T22:00:07.846Z,58.60
2019-04-23T22:05:25.393Z,56.80
2019-04-23T22:10:25.680Z,57.60
2019-04-23T22:15:34.482Z,55.50
2019-04-23T22:20:47.672Z,55.50
2019-04-23T22:25:56.875Z,55.10
2019-04-23T22:30:54.728Z,54.20
2019-04-23T22:36:06.237Z,53.40
2019-04-23T22:41:01.789Z,53.20
2019-04-23T22:46:20.780Z,52.70
2019-04-23T22:51:21.093Z,53.10
2019-04-23T22:56:45.126Z,51.60
2019-04-23T23:01:43.145Z,51.50
2019-04-23T23:06:50.657Z,51.50
2019-04-23T23:11:49.082Z,51.30
2019-04-23T23:16:50.426Z,51.50
2019-04-23T23:22:02.015Z,51.40
2019-04-23T23:26:57.474Z,51.60
2019-04-23T23:32:07.455Z,51.60
2019-04-23T23:37:12.083Z,52.00
2019-04-23T23:42:23.590Z,52.00
2019-04-23T23:47:19.673Z,52.30
2019-04-23T23:52:41.045Z,52.60
2019-04-23T23:57:41.838Z,53.10
